sensor_id;sensor_type;location;lat;lon;timestamp;temperature;humidity
7325;DHT22;3703;48.016;7.802;2022-11-15T00:02:09;11.40;99.90
7325;DHT22;3703;48.016;7.802;2022-11-15T00:04:56;11.40;99.90
7325;DHT22;3703;48.016;7.802;2022-11-15T00:07:45;11.40;99.90
7325;DHT22;3703;48.016;7.802;2022-11-15T00:10:33;11.40;99.90
7325;DHT22;3703;48.016;7.802;2022-11-15T00:13:21;11.40;99.90
7325;DHT22;3703;48.016;7.802;2022-11-15T00:16:09;11.30;99.90
7325;DHT22;3703;48.016;7.802;2022-11-15T00:18:57;11.30;99.90
7325;DHT22;3703;48.016;7.802;2022-11-15T00:21:45;11.30;99.90
7325;DHT22;3703;48.016;7.802;2022-11-15T00:24:33;11.20;99.90
7325;DHT22;3703;48.016;7.802;2022-11-15T00:27:24;11.30;99.90
7325;DHT22;3703;48.016;7.802;2022-11-15T00:30:12;11.30;99.90
7325;DHT22;3703;48.016;7.802;2022-11-15T00:33:02;11.20;99.90
7325;DHT22;3703;48.016;7.802;2022-11-15T00:35:50;10.50;99.90
7325;DHT22;3703;48.016;7.802;2022-11-15T00:38:39;11.20;99.90
7325;DHT22;3703;48.016;7.802;2022-11-15T00:41:28;11.20;99.90
7325;DHT22;3703;48.016;7.802;2022-11-15T00:44:15;11.20;99.90
7325;DHT22;3703;48.016;7.802;2022-11-15T00:47:03;11.20;99.90
7325;DHT22;3703;48.016;7.802;2022-11-15T00:49:51;11.20;99.90
7325;DHT22;3703;48.016;7.802;2022-11-15T00:52:38;11.20;99.90
7325;DHT22;3703;48.016;7.802;2022-11-15T00:55:26;11.20;99.90
7325;DHT22;3703;48.016;7.802;2022-11-15T00:58:15;11.10;99.90
7325;DHT22;3703;48.016;7.802;2022-11-15T01:01:07;11.10;99.90
7325;DHT22;3703;48.016;7.802;2022-11-15T01:03:56;11.10;99.90
7325;DHT22;3703;48.016;7.802;2022-11-15T01:06:44;11.20;99.90
7325;DHT22;3703;48.016;7.802;2022-11-15T01:09:32;12.40;99.90
7325;DHT22;3703;48.016;7.802;2022-11-15T01:12:20;11.10;99.90
7325;DHT22;3703;48.016;7.802;2022-11-15T01:15:09;11.20;99.90
7325;DHT22;3703;48.016;7.802;2022-11-15T01:17:57;11.20;99.90
7325;DHT22;3703;48.016;7.802;2022-11-15T01:20:44;11.20;99.90
7325;DHT22;3703;48.016;7.802;2022-11-15T01:23:32;11.20;99.90
7325;DHT22;3703;48.016;7.802;2022-11-15T01:26:20;11.20;99.90
7325;DHT22;3703;48.016;7.802;2022-11-15T01:29:07;11.20;99.90
7325;DHT22;3703;48.016;7.802;2022-11-15T01:31:56;11.20;99.90
7325;DHT22;3703;48.016;7.802;2022-11-15T01:34:44;11.20;99.90
7325;DHT22;3703;48.016;7.802;2022-11-15T01:37:32;11.20;99.90
7325;DHT22;3703;48.016;7.802;2022-11-15T01:40:19;11.10;99.90
7325;DHT22;3703;48.016;7.802;2022-11-15T01:43:23;11.10;99.90
7325;DHT22;3703;48.016;7.802;2022-11-15T01:46:27;11.10;99.90
7325;DHT22;3703;48.016;7.802;2022-11-15T01:49:21;11.10;99.90
7325;DHT22;3703;48.016;7.802;2022-11-15T01:52:13;11.10;99.90
7325;DHT22;3703;48.016;7.802;2022-11-15T01:55:05;11.20;99.90
7325;DHT22;3703;48.016;7.802;2022-11-15T01:57:57;11.20;99.90
7325;DHT22;3703;48.016;7.802;2022-11-15T02:00:47;11.20;99.90
7325;DHT22;3703;48.016;7.802;2022-11-15T02:03:41;11.20;99.90
7325;DHT22;3703;48.016;7.802;2022-11-15T02:06:35;11.20;99.90
7325;DHT22;3703;48.016;7.802;2022-11-15T02:09:23;11.20;99.90
7325;DHT22;3703;48.016;7.802;2022-11-15T02:12:13;11.10;99.90
7325;DHT22;3703;48.016;7.802;2022-11-15T02:15:03;11.20;99.90
7325;DHT22;3703;48.016;7.802;2022-11-15T02:18:02;11.10;99.90
7325;DHT22;3703;48.016;7.802;2022-11-15T02:21:14;11.10;99.90
7325;DHT22;3703;48.016;7.802;2022-11-15T02:31:22;10.80;99.90
7325;DHT22;3703;48.016;7.802;2022-11-15T02:34:23;10.80;99.90
7325;DHT22;3703;48.016;7.802;2022-11-15T02:37:19;10.90;99.90
7325;DHT22;3703;48.016;7.802;2022-11-15T02:40:16;11.00;99.90
7325;DHT22;3703;48.016;7.802;2022-11-15T02:43:08;11.00;99.90
7325;DHT22;3703;48.016;7.802;2022-11-15T02:46:22;10.70;99.90
7325;DHT22;3703;48.016;7.802;2022-11-15T02:49:34;11.00;99.90
7325;DHT22;3703;48.016;7.802;2022-11-15T02:52:24;11.00;99.90
7325;DHT22;3703;48.016;7.802;2022-11-15T02:55:29;11.00;99.90
7325;DHT22;3703;48.016;7.802;2022-11-15T03:02:08;11.00;99.90
7325;DHT22;3703;48.016;7.802;2022-11-15T03:05:09;11.00;99.90
7325;DHT22;3703;48.016;7.802;2022-11-15T03:08:08;11.00;99.90
7325;DHT22;3703;48.016;7.802;2022-11-15T03:11:03;10.90;99.90
7325;DHT22;3703;48.016;7.802;2022-11-15T03:13:58;10.90;99.90
7325;DHT22;3703;48.016;7.802;2022-11-15T03:16:49;10.80;99.90
7325;DHT22;3703;48.016;7.802;2022-11-15T03:19:44;10.80;99.90
7325;DHT22;3703;48.016;7.802;2022-11-15T03:22:36;10.80;99.90
7325;DHT22;3703;48.016;7.802;2022-11-15T03:25:28;10.90;99.90
7325;DHT22;3703;48.016;7.802;2022-11-15T03:28:22;10.90;99.90
7325;DHT22;3703;48.016;7.802;2022-11-15T03:31:14;11.00;99.90
7325;DHT22;3703;48.016;7.802;2022-11-15T03:34:26;10.90;99.90
7325;DHT22;3703;48.016;7.802;2022-11-15T03:37:17;11.00;99.90
7325;DHT22;3703;48.016;7.802;2022-11-15T03:40:09;11.00;99.90
7325;DHT22;3703;48.016;7.802;2022-11-15T03:43:01;10.80;99.90
7325;DHT22;3703;48.016;7.802;2022-11-15T03:45:58;10.80;99.90
7325;DHT22;3703;48.016;7.802;2022-11-15T03:48:51;10.70;99.90
7325;DHT22;3703;48.016;7.802;2022-11-15T03:51:41;10.80;99.90
7325;DHT22;3703;48.016;7.802;2022-11-15T03:54:30;10.80;99.90
7325;DHT22;3703;48.016;7.802;2022-11-15T03:57:18;10.80;99.90
7325;DHT22;3703;48.016;7.802;2022-11-15T04:00:06;10.80;99.90
7325;DHT22;3703;48.016;7.802;2022-11-15T04:02:55;10.90;99.90
7325;DHT22;3703;48.016;7.802;2022-11-15T04:05:42;10.90;99.90
7325;DHT22;3703;48.016;7.802;2022-11-15T04:08:30;11.00;99.90
7325;DHT22;3703;48.016;7.802;2022-11-15T04:11:19;10.90;99.90
7325;DHT22;3703;48.016;7.802;2022-11-15T04:14:07;10.90;99.90
7325;DHT22;3703;48.016;7.802;2022-11-15T04:16:54;10.90;99.90
7325;DHT22;3703;48.016;7.802;2022-11-15T04:19:42;10.90;99.90
7325;DHT22;3703;48.016;7.802;2022-11-15T04:22:46;11.00;99.90
7325;DHT22;3703;48.016;7.802;2022-11-15T04:25:53;10.90;99.90
7325;DHT22;3703;48.016;7.802;2022-11-15T04:28:44;10.90;99.90
7325;DHT22;3703;48.016;7.802;2022-11-15T04:31:45;10.80;99.90
7325;DHT22;3703;48.016;7.802;2022-11-15T04:34:33;10.80;99.90
7325;DHT22;3703;48.016;7.802;2022-11-15T04:37:21;10.80;99.90
7325;DHT22;3703;48.016;7.802;2022-11-15T04:40:09;10.80;99.90
7325;DHT22;3703;48.016;7.802;2022-11-15T04:42:57;10.80;99.90
7325;DHT22;3703;48.016;7.802;2022-11-15T04:45:46;10.80;99.90
7325;DHT22;3703;48.016;7.802;2022-11-15T04:48:34;9.90;99.90
7325;DHT22;3703;48.016;7.802;2022-11-15T04:51:22;10.80;99.90
7325;DHT22;3703;48.016;7.802;2022-11-15T04:54:09;10.80;99.90
7325;DHT22;3703;48.016;7.802;2022-11-15T04:56:57;10.80;99.90
7325;DHT22;3703;48.016;7.802;2022-11-15T04:59:44;10.90;99.90
7325;DHT22;3703;48.016;7.802;2022-11-15T05:02:34;10.90;99.90
7325;DHT22;3703;48.016;7.802;2022-11-15T05:05:39;10.80;99.90
7325;DHT22;3703;48.016;7.802;2022-11-15T05:08:26;10.90;99.90
7325;DHT22;3703;48.016;7.802;2022-11-15T05:11:14;10.90;99.90
7325;DHT22;3703;48.016;7.802;2022-11-15T05:14:01;10.90;99.90
7325;DHT22;3703;48.016;7.802;2022-11-15T05:16:49;10.90;99.90
7325;DHT22;3703;48.016;7.802;2022-11-15T05:19:38;10.90;99.90
7325;DHT22;3703;48.016;7.802;2022-11-15T05:22:26;10.90;99.90
7325;DHT22;3703;48.016;7.802;2022-11-15T05:25:14;11.00;99.90
7325;DHT22;3703;48.016;7.802;2022-11-15T05:28:02;11.00;99.90
7325;DHT22;3703;48.016;7.802;2022-11-15T05:30:49;11.10;99.90
7325;DHT22;3703;48.016;7.802;2022-11-15T05:33:38;11.10;99.90
7325;DHT22;3703;48.016;7.802;2022-11-15T05:36:33;11.10;99.90
7325;DHT22;3703;48.016;7.802;2022-11-15T05:39:22;11.00;99.90
7325;DHT22;3703;48.016;7.802;2022-11-15T05:42:13;11.00;99.90
7325;DHT22;3703;48.016;7.802;2022-11-15T05:45:03;10.70;99.90
7325;DHT22;3703;48.016;7.802;2022-11-15T05:47:53;11.00;99.90
7325;DHT22;3703;48.016;7.802;2022-11-15T05:50:45;11.00;99.90
7325;DHT22;3703;48.016;7.802;2022-11-15T05:53:36;10.90;99.90
7325;DHT22;3703;48.016;7.802;2022-11-15T05:56:24;11.00;99.90
7325;DHT22;3703;48.016;7.802;2022-11-15T05:59:12;11.00;99.90
7325;DHT22;3703;48.016;7.802;2022-11-15T06:02:00;11.00;99.90
7325;DHT22;3703;48.016;7.802;2022-11-15T06:04:48;11.10;99.90
7325;DHT22;3703;48.016;7.802;2022-11-15T06:07:35;11.10;99.90
7325;DHT22;3703;48.016;7.802;2022-11-15T06:10:24;11.10;99.90
7325;DHT22;3703;48.016;7.802;2022-11-15T06:13:12;11.10;99.90
7325;DHT22;3703;48.016;7.802;2022-11-15T06:16:00;11.10;99.90
7325;DHT22;3703;48.016;7.802;2022-11-15T06:18:48;11.10;99.90
7325;DHT22;3703;48.016;7.802;2022-11-15T06:21:36;11.10;99.90
7325;DHT22;3703;48.016;7.802;2022-11-15T06:24:23;11.20;99.90
7325;DHT22;3703;48.016;7.802;2022-11-15T06:27:12;11.20;99.90
7325;DHT22;3703;48.016;7.802;2022-11-15T06:30:00;11.20;99.90
7325;DHT22;3703;48.016;7.802;2022-11-15T06:32:47;11.10;99.90
7325;DHT22;3703;48.016;7.802;2022-11-15T06:35:35;11.20;99.90
7325;DHT22;3703;48.016;7.802;2022-11-15T06:38:23;11.10;99.90
7325;DHT22;3703;48.016;7.802;2022-11-15T06:41:12;10.70;99.90
7325;DHT22;3703;48.016;7.802;2022-11-15T06:44:02;12.60;99.90
7325;DHT22;3703;48.016;7.802;2022-11-15T06:46:50;11.10;99.90
7325;DHT22;3703;48.016;7.802;2022-11-15T06:49:37;11.00;99.90
7325;DHT22;3703;48.016;7.802;2022-11-15T06:52:25;10.90;99.90
7325;DHT22;3703;48.016;7.802;2022-11-15T06:55:13;11.10;99.90
7325;DHT22;3703;48.016;7.802;2022-11-15T06:58:00;11.10;99.90
7325;DHT22;3703;48.016;7.802;2022-11-15T07:00:49;11.10;99.90
7325;DHT22;3703;48.016;7.802;2022-11-15T07:03:38;11.10;99.90
7325;DHT22;3703;48.016;7.802;2022-11-15T07:06:26;11.10;99.90
7325;DHT22;3703;48.016;7.802;2022-11-15T07:09:14;11.70;99.90
7325;DHT22;3703;48.016;7.802;2022-11-15T07:12:02;11.10;99.90
7325;DHT22;3703;48.016;7.802;2022-11-15T07:14:50;11.10;99.90
7325;DHT22;3703;48.016;7.802;2022-11-15T07:17:39;11.10;99.90
7325;DHT22;3703;48.016;7.802;2022-11-15T07:20:27;11.10;99.90
7325;DHT22;3703;48.016;7.802;2022-11-15T07:23:14;11.10;99.90
7325;DHT22;3703;48.016;7.802;2022-11-15T07:26:02;11.20;99.90
7325;DHT22;3703;48.016;7.802;2022-11-15T07:28:49;11.20;99.90
7325;DHT22;3703;48.016;7.802;2022-11-15T07:31:37;11.20;99.90
7325;DHT22;3703;48.016;7.802;2022-11-15T07:34:26;11.30;99.90
7325;DHT22;3703;48.016;7.802;2022-11-15T07:37:13;11.30;99.90
7325;DHT22;3703;48.016;7.802;2022-11-15T07:40:02;11.30;99.90
7325;DHT22;3703;48.016;7.802;2022-11-15T07:42:50;11.30;99.90
7325;DHT22;3703;48.016;7.802;2022-11-15T07:45:43;11.30;99.90
7325;DHT22;3703;48.016;7.802;2022-11-15T07:48:31;11.30;99.90
7325;DHT22;3703;48.016;7.802;2022-11-15T07:51:20;11.40;99.90
7325;DHT22;3703;48.016;7.802;2022-11-15T07:54:07;11.40;99.90
7325;DHT22;3703;48.016;7.802;2022-11-15T07:56:55;11.40;99.90
7325;DHT22;3703;48.016;7.802;2022-11-15T07:59:42;11.50;99.90
7325;DHT22;3703;48.016;7.802;2022-11-15T08:02:30;11.60;99.90
7325;DHT22;3703;48.016;7.802;2022-11-15T08:05:18;11.60;99.90
7325;DHT22;3703;48.016;7.802;2022-11-15T08:08:08;11.70;99.90
7325;DHT22;3703;48.016;7.802;2022-11-15T08:10:57;11.80;99.90
7325;DHT22;3703;48.016;7.802;2022-11-15T08:13:45;13.20;99.90
7325;DHT22;3703;48.016;7.802;2022-11-15T08:16:32;12.00;99.90
7325;DHT22;3703;48.016;7.802;2022-11-15T08:19:20;12.10;99.90
7325;DHT22;3703;48.016;7.802;2022-11-15T08:22:08;12.20;99.90
7325;DHT22;3703;48.016;7.802;2022-11-15T08:24:57;12.10;99.90
7325;DHT22;3703;48.016;7.802;2022-11-15T08:27:44;12.10;99.90
7325;DHT22;3703;48.016;7.802;2022-11-15T08:30:36;12.10;99.90
7325;DHT22;3703;48.016;7.802;2022-11-15T08:33:24;11.30;99.90
7325;DHT22;3703;48.016;7.802;2022-11-15T08:36:13;12.00;99.90
7325;DHT22;3703;48.016;7.802;2022-11-15T08:39:02;12.20;99.90
7325;DHT22;3703;48.016;7.802;2022-11-15T08:41:52;12.20;99.90
7325;DHT22;3703;48.016;7.802;2022-11-15T08:44:39;12.30;99.90
7325;DHT22;3703;48.016;7.802;2022-11-15T08:47:27;12.30;99.90
7325;DHT22;3703;48.016;7.802;2022-11-15T08:50:15;12.50;99.90
7325;DHT22;3703;48.016;7.802;2022-11-15T08:53:06;12.50;99.90
7325;DHT22;3703;48.016;7.802;2022-11-15T08:55:54;12.60;99.90
7325;DHT22;3703;48.016;7.802;2022-11-15T08:58:43;12.60;99.90
7325;DHT22;3703;48.016;7.802;2022-11-15T09:01:31;12.50;99.90
7325;DHT22;3703;48.016;7.802;2022-11-15T09:04:18;12.50;99.90
7325;DHT22;3703;48.016;7.802;2022-11-15T09:07:06;12.50;99.90
7325;DHT22;3703;48.016;7.802;2022-11-15T09:09:54;12.50;99.90
7325;DHT22;3703;48.016;7.802;2022-11-15T09:12:41;12.40;99.90
7325;DHT22;3703;48.016;7.802;2022-11-15T09:15:30;12.40;99.90
7325;DHT22;3703;48.016;7.802;2022-11-15T09:18:18;12.40;99.90
7325;DHT22;3703;48.016;7.802;2022-11-15T09:21:08;12.40;99.90
7325;DHT22;3703;48.016;7.802;2022-11-15T09:23:57;12.40;99.90
7325;DHT22;3703;48.016;7.802;2022-11-15T09:26:45;12.50;99.90
7325;DHT22;3703;48.016;7.802;2022-11-15T09:29:32;12.50;99.90
7325;DHT22;3703;48.016;7.802;2022-11-15T09:32:21;12.50;99.90
7325;DHT22;3703;48.016;7.802;2022-11-15T09:35:09;12.50;99.90
7325;DHT22;3703;48.016;7.802;2022-11-15T09:37:57;12.50;99.90
7325;DHT22;3703;48.016;7.802;2022-11-15T09:40:51;12.50;99.90
7325;DHT22;3703;48.016;7.802;2022-11-15T09:43:46;12.60;99.90
7325;DHT22;3703;48.016;7.802;2022-11-15T09:46:46;12.60;99.90
7325;DHT22;3703;48.016;7.802;2022-11-15T09:49:39;12.70;99.90
7325;DHT22;3703;48.016;7.802;2022-11-15T09:52:27;12.80;99.90
7325;DHT22;3703;48.016;7.802;2022-11-15T09:55:15;12.90;99.90
7325;DHT22;3703;48.016;7.802;2022-11-15T09:58:18;12.90;99.90
7325;DHT22;3703;48.016;7.802;2022-11-15T10:01:15;12.30;99.90
7325;DHT22;3703;48.016;7.802;2022-11-15T10:04:04;13.10;99.90
7325;DHT22;3703;48.016;7.802;2022-11-15T10:07:02;13.20;99.90
7325;DHT22;3703;48.016;7.802;2022-11-15T10:09:55;13.30;99.90
7325;DHT22;3703;48.016;7.802;2022-11-15T10:12:48;13.50;99.90
7325;DHT22;3703;48.016;7.802;2022-11-15T10:15:38;13.50;99.90
7325;DHT22;3703;48.016;7.802;2022-11-15T10:18:30;13.60;99.90
7325;DHT22;3703;48.016;7.802;2022-11-15T10:21:25;13.60;99.90
7325;DHT22;3703;48.016;7.802;2022-11-15T10:24:22;13.50;99.90
7325;DHT22;3703;48.016;7.802;2022-11-15T10:27:15;13.50;99.90
7325;DHT22;3703;48.016;7.802;2022-11-15T10:30:06;13.50;99.90
7325;DHT22;3703;48.016;7.802;2022-11-15T10:33:00;13.40;99.90
7325;DHT22;3703;48.016;7.802;2022-11-15T10:36:17;13.40;99.90
7325;DHT22;3703;48.016;7.802;2022-11-15T10:39:12;13.40;99.90
7325;DHT22;3703;48.016;7.802;2022-11-15T10:42:15;13.40;99.90
7325;DHT22;3703;48.016;7.802;2022-11-15T10:45:23;13.50;99.90
7325;DHT22;3703;48.016;7.802;2022-11-15T10:48:21;13.60;99.90
7325;DHT22;3703;48.016;7.802;2022-11-15T10:51:20;13.70;99.90
7325;DHT22;3703;48.016;7.802;2022-11-15T10:54:12;13.70;99.90
7325;DHT22;3703;48.016;7.802;2022-11-15T10:57:06;13.80;99.90
7325;DHT22;3703;48.016;7.802;2022-11-15T10:59:58;13.80;99.90
7325;DHT22;3703;48.016;7.802;2022-11-15T11:02:57;13.80;99.90
7325;DHT22;3703;48.016;7.802;2022-11-15T11:05:46;13.80;99.90
7325;DHT22;3703;48.016;7.802;2022-11-15T11:08:33;13.80;99.90
7325;DHT22;3703;48.016;7.802;2022-11-15T11:11:21;13.80;99.90
7325;DHT22;3703;48.016;7.802;2022-11-15T11:14:12;13.90;99.90
7325;DHT22;3703;48.016;7.802;2022-11-15T11:17:09;13.90;99.90
7325;DHT22;3703;48.016;7.802;2022-11-15T11:20:04;13.90;99.90
7325;DHT22;3703;48.016;7.802;2022-11-15T11:23:20;14.00;99.90
7325;DHT22;3703;48.016;7.802;2022-11-15T11:26:29;13.90;99.90
7325;DHT22;3703;48.016;7.802;2022-11-15T11:29:37;14.00;99.90
7325;DHT22;3703;48.016;7.802;2022-11-15T11:32:57;14.00;99.90
7325;DHT22;3703;48.016;7.802;2022-11-15T11:36:05;14.00;99.90
7325;DHT22;3703;48.016;7.802;2022-11-15T11:39:11;14.10;99.90
7325;DHT22;3703;48.016;7.802;2022-11-15T11:42:17;14.10;99.90
7325;DHT22;3703;48.016;7.802;2022-11-15T11:45:20;14.20;99.90
7325;DHT22;3703;48.016;7.802;2022-11-15T11:48:40;14.20;99.90
7325;DHT22;3703;48.016;7.802;2022-11-15T11:51:33;14.20;99.90
7325;DHT22;3703;48.016;7.802;2022-11-15T11:54:28;14.20;99.90
7325;DHT22;3703;48.016;7.802;2022-11-15T11:57:29;14.30;99.90
7325;DHT22;3703;48.016;7.802;2022-11-15T12:00:21;14.30;99.90
7325;DHT22;3703;48.016;7.802;2022-11-15T12:03:14;14.30;99.90
7325;DHT22;3703;48.016;7.802;2022-11-15T12:06:19;14.30;99.90
7325;DHT22;3703;48.016;7.802;2022-11-15T12:09:14;14.30;99.90
7325;DHT22;3703;48.016;7.802;2022-11-15T12:12:08;14.30;99.90
7325;DHT22;3703;48.016;7.802;2022-11-15T12:15:02;14.30;99.90
7325;DHT22;3703;48.016;7.802;2022-11-15T12:17:52;14.30;99.90
7325;DHT22;3703;48.016;7.802;2022-11-15T12:20:51;14.20;99.90
7325;DHT22;3703;48.016;7.802;2022-11-15T12:23:46;14.30;99.90
7325;DHT22;3703;48.016;7.802;2022-11-15T12:26:41;14.20;99.90
7325;DHT22;3703;48.016;7.802;2022-11-15T12:29:37;14.20;99.90
7325;DHT22;3703;48.016;7.802;2022-11-15T12:32:28;14.20;99.90
7325;DHT22;3703;48.016;7.802;2022-11-15T12:35:25;14.10;99.90
7325;DHT22;3703;48.016;7.802;2022-11-15T12:38:53;14.10;99.90
7325;DHT22;3703;48.016;7.802;2022-11-15T12:41:44;13.70;99.90
7325;DHT22;3703;48.016;7.802;2022-11-15T12:44:58;13.60;99.90
7325;DHT22;3703;48.016;7.802;2022-11-15T12:47:46;13.50;99.90
7325;DHT22;3703;48.016;7.802;2022-11-15T12:50:55;13.50;99.90
7325;DHT22;3703;48.016;7.802;2022-11-15T12:53:44;13.50;99.90
7325;DHT22;3703;48.016;7.802;2022-11-15T12:56:33;13.50;99.90
7325;DHT22;3703;48.016;7.802;2022-11-15T12:59:48;13.40;99.90
7325;DHT22;3703;48.016;7.802;2022-11-15T13:02:38;13.30;99.90
7325;DHT22;3703;48.016;7.802;2022-11-15T13:05:53;13.40;99.90
7325;DHT22;3703;48.016;7.802;2022-11-15T13:09:00;13.40;99.90
7325;DHT22;3703;48.016;7.802;2022-11-15T13:11:51;13.50;99.90
7325;DHT22;3703;48.016;7.802;2022-11-15T13:17:43;13.40;99.90
7325;DHT22;3703;48.016;7.802;2022-11-15T13:20:32;13.50;99.90
7325;DHT22;3703;48.016;7.802;2022-11-15T13:23:21;13.60;99.90
7325;DHT22;3703;48.016;7.802;2022-11-15T13:26:12;13.60;99.90
7325;DHT22;3703;48.016;7.802;2022-11-15T13:29:04;13.60;99.90
7325;DHT22;3703;48.016;7.802;2022-11-15T13:32:00;13.60;99.90
7325;DHT22;3703;48.016;7.802;2022-11-15T13:34:49;13.50;99.90
7325;DHT22;3703;48.016;7.802;2022-11-15T13:37:38;13.50;99.90
7325;DHT22;3703;48.016;7.802;2022-11-15T13:40:27;13.50;99.90
7325;DHT22;3703;48.016;7.802;2022-11-15T13:43:26;13.60;99.90
7325;DHT22;3703;48.016;7.802;2022-11-15T13:46:19;13.60;99.90
7325;DHT22;3703;48.016;7.802;2022-11-15T13:49:09;13.60;99.90
7325;DHT22;3703;48.016;7.802;2022-11-15T13:51:58;13.60;99.90
7325;DHT22;3703;48.016;7.802;2022-11-15T13:54:53;13.60;99.90
7325;DHT22;3703;48.016;7.802;2022-11-15T13:57:46;13.60;99.90
7325;DHT22;3703;48.016;7.802;2022-11-15T14:00:38;13.60;99.90
7325;DHT22;3703;48.016;7.802;2022-11-15T14:03:31;13.60;99.90
7325;DHT22;3703;48.016;7.802;2022-11-15T14:06:21;13.70;99.90
7325;DHT22;3703;48.016;7.802;2022-11-15T14:09:33;13.70;99.90
7325;DHT22;3703;48.016;7.802;2022-11-15T14:12:28;13.70;99.90
7325;DHT22;3703;48.016;7.802;2022-11-15T14:15:27;13.70;99.90
7325;DHT22;3703;48.016;7.802;2022-11-15T14:18:44;13.70;99.90
7325;DHT22;3703;48.016;7.802;2022-11-15T14:21:33;13.70;99.90
7325;DHT22;3703;48.016;7.802;2022-11-15T14:24:21;13.80;99.90
7325;DHT22;3703;48.016;7.802;2022-11-15T14:27:21;13.70;99.90
7325;DHT22;3703;48.016;7.802;2022-11-15T14:30:14;13.60;99.90
7325;DHT22;3703;48.016;7.802;2022-11-15T14:33:19;13.70;99.90
7325;DHT22;3703;48.016;7.802;2022-11-15T14:36:14;13.70;99.90
7325;DHT22;3703;48.016;7.802;2022-11-15T14:39:02;13.60;99.90
7325;DHT22;3703;48.016;7.802;2022-11-15T14:41:51;13.70;99.90
7325;DHT22;3703;48.016;7.802;2022-11-15T14:44:38;13.60;99.90
7325;DHT22;3703;48.016;7.802;2022-11-15T14:47:26;13.60;99.90
7325;DHT22;3703;48.016;7.802;2022-11-15T14:50:15;13.60;99.90
7325;DHT22;3703;48.016;7.802;2022-11-15T14:53:05;13.30;99.90
7325;DHT22;3703;48.016;7.802;2022-11-15T14:55:53;13.40;99.90
7325;DHT22;3703;48.016;7.802;2022-11-15T14:58:40;13.40;99.90
7325;DHT22;3703;48.016;7.802;2022-11-15T15:01:28;13.40;99.90
7325;DHT22;3703;48.016;7.802;2022-11-15T15:04:16;13.50;99.90
7325;DHT22;3703;48.016;7.802;2022-11-15T15:07:03;13.50;99.90
7325;DHT22;3703;48.016;7.802;2022-11-15T15:09:52;13.40;99.90
7325;DHT22;3703;48.016;7.802;2022-11-15T15:12:40;13.40;99.90
7325;DHT22;3703;48.016;7.802;2022-11-15T15:15:32;13.20;99.90
7325;DHT22;3703;48.016;7.802;2022-11-15T15:18:21;13.20;99.90
7325;DHT22;3703;48.016;7.802;2022-11-15T15:21:17;13.20;99.90
7325;DHT22;3703;48.016;7.802;2022-11-15T15:24:09;13.10;99.90
7325;DHT22;3703;48.016;7.802;2022-11-15T15:27:02;13.10;99.90
7325;DHT22;3703;48.016;7.802;2022-11-15T15:29:49;13.20;99.90
7325;DHT22;3703;48.016;7.802;2022-11-15T15:32:37;13.20;99.90
7325;DHT22;3703;48.016;7.802;2022-11-15T15:35:29;13.10;99.90
7325;DHT22;3703;48.016;7.802;2022-11-15T15:38:17;13.00;99.90
7325;DHT22;3703;48.016;7.802;2022-11-15T15:41:09;13.00;99.90
7325;DHT22;3703;48.016;7.802;2022-11-15T15:43:59;13.00;99.90
7325;DHT22;3703;48.016;7.802;2022-11-15T15:46:46;12.90;99.90
7325;DHT22;3703;48.016;7.802;2022-11-15T15:49:34;12.80;99.90
7325;DHT22;3703;48.016;7.802;2022-11-15T15:52:21;12.70;99.90
7325;DHT22;3703;48.016;7.802;2022-11-15T15:55:09;12.60;99.90
7325;DHT22;3703;48.016;7.802;2022-11-15T15:57:57;12.60;99.90
7325;DHT22;3703;48.016;7.802;2022-11-15T16:00:46;12.60;99.90
7325;DHT22;3703;48.016;7.802;2022-11-15T16:03:33;12.50;99.90
7325;DHT22;3703;48.016;7.802;2022-11-15T16:06:38;12.50;99.90
7325;DHT22;3703;48.016;7.802;2022-11-15T16:09:30;12.60;99.90
7325;DHT22;3703;48.016;7.802;2022-11-15T16:12:35;12.60;99.90
7325;DHT22;3703;48.016;7.802;2022-11-15T16:15:25;12.50;99.90
7325;DHT22;3703;48.016;7.802;2022-11-15T16:18:16;12.50;99.90
7325;DHT22;3703;48.016;7.802;2022-11-15T16:21:04;12.60;99.90
7325;DHT22;3703;48.016;7.802;2022-11-15T16:23:52;12.60;99.90
7325;DHT22;3703;48.016;7.802;2022-11-15T16:26:39;12.60;99.90
7325;DHT22;3703;48.016;7.802;2022-11-15T16:29:27;12.60;99.90
7325;DHT22;3703;48.016;7.802;2022-11-15T16:32:16;12.60;99.90
7325;DHT22;3703;48.016;7.802;2022-11-15T16:35:06;12.60;99.90
7325;DHT22;3703;48.016;7.802;2022-11-15T16:37:56;12.60;99.90
7325;DHT22;3703;48.016;7.802;2022-11-15T16:40:44;12.60;99.90
7325;DHT22;3703;48.016;7.802;2022-11-15T16:43:32;12.60;99.90
7325;DHT22;3703;48.016;7.802;2022-11-15T16:46:21;12.60;99.90
7325;DHT22;3703;48.016;7.802;2022-11-15T16:49:12;12.60;99.90
7325;DHT22;3703;48.016;7.802;2022-11-15T16:52:02;12.60;99.90
7325;DHT22;3703;48.016;7.802;2022-11-15T16:54:49;12.60;99.90
7325;DHT22;3703;48.016;7.802;2022-11-15T16:57:37;12.60;99.90
7325;DHT22;3703;48.016;7.802;2022-11-15T17:00:25;12.50;99.90
7325;DHT22;3703;48.016;7.802;2022-11-15T17:03:12;12.50;99.90
7325;DHT22;3703;48.016;7.802;2022-11-15T17:06:00;12.60;99.90
7325;DHT22;3703;48.016;7.802;2022-11-15T17:08:49;12.60;99.90
7325;DHT22;3703;48.016;7.802;2022-11-15T17:11:37;12.50;99.90
7325;DHT22;3703;48.016;7.802;2022-11-15T17:14:28;12.40;99.90
7325;DHT22;3703;48.016;7.802;2022-11-15T17:17:16;12.40;99.90
7325;DHT22;3703;48.016;7.802;2022-11-15T17:20:04;12.30;99.90
7325;DHT22;3703;48.016;7.802;2022-11-15T17:22:55;12.30;99.90
7325;DHT22;3703;48.016;7.802;2022-11-15T17:25:44;12.30;99.90
7325;DHT22;3703;48.016;7.802;2022-11-15T17:28:32;12.30;99.90
7325;DHT22;3703;48.016;7.802;2022-11-15T17:31:20;12.30;99.90
7325;DHT22;3703;48.016;7.802;2022-11-15T17:34:08;12.40;99.90
7325;DHT22;3703;48.016;7.802;2022-11-15T17:36:55;12.40;99.90
7325;DHT22;3703;48.016;7.802;2022-11-15T17:39:43;12.40;99.90
7325;DHT22;3703;48.016;7.802;2022-11-15T17:42:32;12.40;99.90
7325;DHT22;3703;48.016;7.802;2022-11-15T17:45:19;12.30;99.90
7325;DHT22;3703;48.016;7.802;2022-11-15T17:48:07;12.40;99.90
7325;DHT22;3703;48.016;7.802;2022-11-15T17:50:55;12.30;99.90
7325;DHT22;3703;48.016;7.802;2022-11-15T17:53:45;12.30;99.90
7325;DHT22;3703;48.016;7.802;2022-11-15T17:56:38;12.30;99.90
7325;DHT22;3703;48.016;7.802;2022-11-15T17:59:27;12.40;99.90
7325;DHT22;3703;48.016;7.802;2022-11-15T18:02:15;12.40;99.90
7325;DHT22;3703;48.016;7.802;2022-11-15T18:05:05;12.40;99.90
7325;DHT22;3703;48.016;7.802;2022-11-15T18:07:53;12.40;99.90
7325;DHT22;3703;48.016;7.802;2022-11-15T18:10:41;12.40;99.90
7325;DHT22;3703;48.016;7.802;2022-11-15T18:13:29;12.30;99.90
7325;DHT22;3703;48.016;7.802;2022-11-15T18:16:19;12.30;99.90
7325;DHT22;3703;48.016;7.802;2022-11-15T18:19:10;12.30;99.90
7325;DHT22;3703;48.016;7.802;2022-11-15T18:21:58;12.30;99.90
7325;DHT22;3703;48.016;7.802;2022-11-15T18:24:46;12.30;99.90
7325;DHT22;3703;48.016;7.802;2022-11-15T18:27:34;12.20;99.90
7325;DHT22;3703;48.016;7.802;2022-11-15T18:30:23;12.30;99.90
7325;DHT22;3703;48.016;7.802;2022-11-15T18:33:12;12.30;99.90
7325;DHT22;3703;48.016;7.802;2022-11-15T18:36:00;12.10;99.90
7325;DHT22;3703;48.016;7.802;2022-11-15T18:38:53;12.20;99.90
7325;DHT22;3703;48.016;7.802;2022-11-15T18:41:42;12.20;99.90
7325;DHT22;3703;48.016;7.802;2022-11-15T18:44:31;12.20;99.90
7325;DHT22;3703;48.016;7.802;2022-11-15T18:47:19;12.20;99.90
7325;DHT22;3703;48.016;7.802;2022-11-15T18:50:08;12.20;99.90
7325;DHT22;3703;48.016;7.802;2022-11-15T18:52:56;12.20;99.90
7325;DHT22;3703;48.016;7.802;2022-11-15T18:55:46;12.10;99.90